Time;durP1;ratioP1;P1;durP2;ratioP2;P2;SDS_P1;SDS_P2;PMS_P1;PMS_P2;Temp;Humidity;BMP_temperature;BMP_pressure;BME280_temperature;BME280_humidity;BME280_pressure;Samples;Min_cycle;Max_cycle;Signal;HPM_P1;HPM_P2
2023/02/16 06:54:17;;;;;;;10.50;8.23;;;;;;;;;;10524787;28;20451;-83
2023/02/16 06:59:18;;;;;;;13.75;10.65;;;;;;;;;;10524847;28;20387;-83
2023/02/16 07:04:20;;;;;;;17.27;12.77;;;;;;;;;;10531116;28;20104;-83
2023/02/16 07:09:21;;;;;;;14.68;10.45;;;;;;;;;;10521612;28;20029;-84
2023/02/16 07:14:22;;;;;;;13.60;9.57;;;;;;;;;;10507818;28;20027;-84
2023/02/16 07:19:23;;;;;;;12.65;9.30;;;;;;;;;;10507830;28;20119;-84
2023/02/16 07:24:24;;;;;;;;;;;;;;;;;;10508199;28;20119;-84
2023/02/16 07:29:25;;;;;;;12.70;10.57;;;;;;;;;;10508840;28;19926;-83
2023/02/16 07:34:26;;;;;;;;;;;;;;;;;;10510090;28;20120;-84
2023/02/16 07:39:28;;;;;;;15.88;11.55;;;;;;;;;;10515637;28;19972;-84
2023/02/16 07:44:29;;;;;;;12.02;10.00;;;;;;;;;;10536937;28;20017;-84
2023/02/16 07:49:31;;;;;;;;;;;;;;;;;;10526006;28;20028;-84
2023/02/16 07:54:32;;;;;;;;;;;;;;;;;;10505159;28;19915;-84
2023/02/16 07:59:36;;;;;;;7.63;6.65;;;;;;;;;;10507138;28;19904;-83
2023/02/16 08:04:37;;;;;;;13.75;10.20;;;;;;;;;;10491565;28;20043;-81
2023/02/16 08:09:38;;;;;;;;;;;;;;;;;;10483120;28;20029;-81
2023/02/16 08:14:39;;;;;;;;;;;;;;;;;;10473575;28;19904;-80
2023/02/16 08:19:40;;;;;;;16.38;12.85;;;;;;;;;;10481312;28;20329;-83
2023/02/16 08:24:42;;;;;;;18.38;14.13;;;;;;;;;;10480742;28;20061;-84
2023/02/16 08:29:43;;;;;;;15.32;12.00;;;;;;;;;;10476685;28;20033;-84
2023/02/16 08:34:44;;;;;;;17.67;14.15;;;;;;;;;;10476326;28;20025;-83
2023/02/16 08:39:45;;;;;;;14.85;11.45;;;;;;;;;;10477523;28;20123;-83
2023/02/16 08:44:46;;;;;;;14.98;9.98;;;;;;;;;;10476377;28;20036;-83
2023/02/16 08:49:47;;;;;;;;;;;;;;;;;;10479764;28;20080;-83
2023/02/16 08:54:48;;;;;;;14.10;11.25;;;;;;;;;;10480485;28;19908;-83
2023/02/16 09:00:32;;;;;;;11.82;8.80;;;;;;;;;;10475039;28;20090;-83
2023/02/16 09:05:12;;;;;;;15.90;12.27;;;;;;;;;;10473343;28;20033;-82
2023/02/16 09:10:13;;;;;;;16.77;13.25;;;;;;;;;;10471396;28;20025;-82
2023/02/16 09:15:14;;;;;;;;;;;;;;;;;;10472989;28;20057;-82
2023/02/16 09:20:16;;;;;;;13.45;11.60;;;;;;;;;;10475849;28;19955;-82
2023/02/16 09:25:17;;;;;;;15.15;11.50;;;;;;;;;;10472607;28;20047;-82
2023/02/16 09:30:18;;;;;;;11.98;10.13;;;;;;;;;;10468053;28;20033;-83
2023/02/16 09:35:20;;;;;;;10.90;9.68;;;;;;;;;;10472288;28;20032;-83
2023/02/16 09:40:21;;;;;;;14.82;11.90;;;;;;;;;;10468768;28;20025;-83
2023/02/16 09:45:23;;;;;;;19.15;13.82;;;;;;;;;;10471549;28;20025;-84
2023/02/16 09:50:26;;;;;;;15.40;10.95;;;;;;;;;;10504563;28;20036;-83
2023/02/16 09:55:33;;;;;;;14.32;10.88;;;;;;;;;;10497814;28;20042;-83
2023/02/16 10:00:34;;;;;;;14.25;11.18;;;;;;;;;;10471294;28;20029;-82
2023/02/16 10:06:05;;;;;;;12.63;11.10;;;;;;;;;;10468336;28;20025;-82
2023/02/16 10:11:40;;;;;;;14.83;12.40;;;;;;;;;;10460733;28;20105;-83
2023/02/16 10:16:44;;;;;;;14.40;11.00;;;;;;;;;;10468232;28;20263;-83
2023/02/16 10:21:48;;;;;;;15.60;11.25;;;;;;;;;;10468278;28;20017;-82
2023/02/16 10:26:53;;;;;;;14.18;10.18;;;;;;;;;;10478684;28;20052;-83
2023/02/16 10:31:55;;;;;;;15.27;11.90;;;;;;;;;;10488933;28;20040;-83
2023/02/16 10:36:59;;;;;;;13.13;11.15;;;;;;;;;;10477329;28;20387;-84
2023/02/16 10:42:21;;;;;;;18.30;14.38;;;;;;;;;;10470825;28;20111;-84
2023/02/16 10:47:35;;;;;;;14.50;11.70;;;;;;;;;;10468835;28;20394;-83
2023/02/16 10:52:39;;;;;;;14.75;11.93;;;;;;;;;;10473678;28;20029;-85
2023/02/16 10:57:40;;;;;;;9.40;7.78;;;;;;;;;;10470809;28;20432;-83
2023/02/16 11:02:42;;;;;;;11.80;9.63;;;;;;;;;;10473926;28;20033;-83
2023/02/16 11:07:52;;;;;;;14.60;11.68;;;;;;;;;;10469630;28;20025;-83
2023/02/16 11:12:56;;;;;;;19.35;13.93;;;;;;;;;;10469452;28;20056;-83
2023/02/16 11:17:58;;;;;;;17.83;13.27;;;;;;;;;;10468370;28;20487;-83
2023/02/16 11:23:13;;;;;;;20.52;17.17;;;;;;;;;;10470397;28;20102;-83
2023/02/16 11:28:24;;;;;;;20.60;16.58;;;;;;;;;;10470487;28;20096;-82
2023/02/16 11:33:26;;;;;;;17.20;13.05;;;;;;;;;;10470382;28;20106;-83
2023/02/16 11:38:35;;;;;;;19.20;16.35;;;;;;;;;;10473403;28;20129;-83
2023/02/16 11:43:38;;;;;;;14.70;11.73;;;;;;;;;;10482210;28;20020;-84
2023/02/16 11:48:40;;;;;;;14.35;11.68;;;;;;;;;;10481339;28;20025;-84
2023/02/16 11:53:43;;;;;;;16.13;12.68;;;;;;;;;;10481507;28;20414;-83
2023/02/16 11:58:44;;;;;;;11.25;8.68;;;;;;;;;;10479125;28;20025;-84
2023/02/16 12:03:58;;;;;;;12.07;9.38;;;;;;;;;;10480210;28;20048;-84
2023/02/16 12:09:07;;;;;;;16.73;13.10;;;;;;;;;;10506526;22;20073;-84
2023/02/16 12:14:17;;;;;;;18.67;13.20;;;;;;;;;;10404299;28;20026;-83
2023/02/16 12:19:19;;;;;;;22.43;19.53;;;;;;;;;;10423962;28;20029;-82
2023/02/16 12:24:52;;;;;;;13.77;11.40;;;;;;;;;;10444257;28;20052;-84
2023/02/16 12:30:02;;;;;;;15.48;12.65;;;;;;;;;;10428488;28;20136;-83
2023/02/16 12:35:03;;;;;;;15.10;11.97;;;;;;;;;;10438168;28;20063;-83
2023/02/16 12:40:04;;;;;;;;;;;;;;;;;;10444891;28;20260;-82
2023/02/16 12:45:05;;;;;;;;;;;;;;;;;;10443261;28;19988;-83
2023/02/16 12:50:06;;;;;;;;;;;;;;;;;;10442375;28;20044;-83
2023/02/16 12:55:07;;;;;;;;;;;;;;;;;;10445048;28;19905;-83
2023/02/16 13:00:08;;;;;;;;;;;;;;;;;;10439922;28;19972;-84
2023/02/16 13:05:09;;;;;;;;;;;;;;;;;;10442010;28;19979;-83
2023/02/16 13:10:10;;;;;;;;;;;;;;;;;;10442372;28;20044;-84
2023/02/16 13:15:11;;;;;;;;;;;;;;;;;;10445837;28;19905;-84
2023/02/16 13:20:13;;;;;;;;;;;;;;;;;;10446900;28;19947;-84
2023/02/16 13:25:14;;;;;;;;;;;;;;;;;;10446442;28;20424;-84
2023/02/16 13:30:15;;;;;;;;;;;;;;;;;;10443810;28;20015;-83
2023/02/16 13:35:16;;;;;;;;;;;;;;;;;;10442979;28;19915;-83
2023/02/16 13:40:17;;;;;;;;;;;;;;;;;;10446831;28;19936;-83
2023/02/16 13:45:18;;;;;;;;;;;;;;;;;;10446828;28;19929;-83
2023/02/16 13:50:19;;;;;;;;;;;;;;;;;;10446421;28;19948;-84
2023/02/16 13:55:25;;;;;;;;;;;;;;;;;;10444628;28;19905;-83
2023/02/16 14:06:16;;;;;;;;;;;;;;;;;;10439263;28;19909;-83
2023/02/16 14:11:22;;;;;;;;;;;;;;;;;;10436749;28;20282;-84
2023/02/16 14:16:38;;;;;;;;;;;;;;;;;;10437100;28;19909;-83
2023/02/16 14:27:19;;;;;;;;;;;;;;;;;;10477155;28;19955;-84
2023/02/16 14:32:20;;;;;;;;;;;;;;;;;;10456004;28;19909;-83
2023/02/16 14:37:21;;;;;;;;;;;;;;;;;;10439853;28;19909;-84
2023/02/16 14:42:22;;;;;;;;;;;;;;;;;;10441492;28;19976;-83
2023/02/16 14:47:23;;;;;;;;;;;;;;;;;;10437818;28;19950;-84
2023/02/16 14:52:24;;;;;;;;;;;;;;;;;;10433925;28;19935;-82
2023/02/16 14:57:25;;;;;;;;;;;;;;;;;;10437118;28;20027;-86
2023/02/16 15:02:26;;;;;;;;;;;;;;;;;;10432932;28;19927;-82
2023/02/16 15:07:49;;;;;;;;;;;;;;;;;;10436453;28;19913;-83
2023/02/16 15:12:50;;;;;;;;;;;;;;;;;;10435603;28;19916;-83
2023/02/16 15:17:52;;;;;;;;;;;;;;;;;;10443739;28;19911;-83
2023/02/16 15:22:53;;;;;;;;;;;;;;;;;;10442631;28;19905;-82
2023/02/16 15:27:57;;;;;;;;;;;;;;;;;;10439985;28;19909;-81
2023/02/16 15:32:58;;;;;;;;;;;;;;;;;;10441987;28;19917;-81
2023/02/16 15:38:19;;;;;;;;;;;;;;;;;;10441512;28;19905;-82
2023/02/16 15:43:22;;;;;;;;;;;;;;;;;;10438107;28;20371;-82
2023/02/16 15:48:26;;;;;;;;;;;;;;;;;;10439098;28;20289;-81
2023/02/16 15:53:36;;;;;;;;;;;;;;;;;;10438320;28;19954;-81
2023/02/16 15:58:37;;;;;;;;;;;;;;;;;;10437120;28;19912;-82
2023/02/16 16:03:38;;;;;;;;;;;;;;;;;;10435579;28;19911;-80
2023/02/16 16:08:39;;;;;;;;;;;;;;;;;;10439372;28;19964;-80
2023/02/16 16:13:40;;;;;;;;;;;;;;;;;;10434464;28;19916;-80
2023/02/16 16:18:42;;;;;;;;;;;;;;;;;;10434748;28;19905;-81
2023/02/16 16:23:42;;;;;;;;;;;;;;;;;;10456269;28;19904;-81
2023/02/16 16:28:44;;;;;;;;;;;;;;;;;;10436247;28;19911;-82
2023/02/16 16:33:44;;;;;;;;;;;;;;;;;;10440179;28;19971;-82
2023/02/16 16:38:45;;;;;;;;;;;;;;;;;;10443812;28;20000;-81
2023/02/16 16:43:46;;;;;;;;;;;;;;;;;;10440666;28;19968;-82
2023/02/16 16:48:47;;;;;;;;;;;;;;;;;;10431536;28;20343;-83
2023/02/16 16:53:48;;;;;;;;;;;;;;;;;;10429674;28;19909;-82
2023/02/16 16:58:50;;;;;;;;;;;;;;;;;;10431649;28;19995;-81
2023/02/16 17:03:51;;;;;;;;;;;;;;;;;;10429400;28;19905;-82
2023/02/16 17:08:54;;;;;;;;;;;;;;;;;;10432473;28;19905;-83
2023/02/16 17:13:55;;;;;;;;;;;;;;;;;;10433298;28;19913;-82
2023/02/16 17:18:55;;;;;;;;;;;;;;;;;;10433937;28;19905;-81
2023/02/16 17:23:56;;;;;;;;;;;;;;;;;;10433561;28;20283;-81
2023/02/16 17:29:01;;;;;;;;;;;;;;;;;;10435225;28;19960;-81
2023/02/16 17:34:04;;;;;;;;;;;;;;;;;;10422106;28;19913;-81
2023/02/16 17:39:07;;;;;;;;;;;;;;;;;;10424147;28;19909;-82
2023/02/16 17:44:08;;;;;;;;;;;;;;;;;;10424617;28;19912;-81
2023/02/16 17:49:24;;;;;;;;;;;;;;;;;;10429467;28;20200;-81
2023/02/16 17:54:25;;;;;;;;;;;;;;;;;;10424226;28;20036;-81
2023/02/16 17:59:30;;;;;;;;;;;;;;;;;;10423905;28;19905;-81
2023/02/16 18:04:31;;;;;;;;;;;;;;;;;;10423052;28;19909;-80
2023/02/16 18:09:34;;;;;;;;;;;;;;;;;;10427899;28;19909;-80
2023/02/16 18:14:35;;;;;;;;;;;;;;;;;;10454313;28;19923;-80
2023/02/16 18:19:39;;;;;;;;;;;;;;;;;;10440698;28;19913;-79
2023/02/16 18:24:43;;;;;;;;;;;;;;;;;;10441254;28;19944;-80
2023/02/16 18:29:44;;;;;;;;;;;;;;;;;;10442081;28;19905;-80
2023/02/16 18:34:45;;;;;;;;;;;;;;;;;;10428545;28;19921;-80
2023/02/16 18:39:46;;;;;;;;;;;;;;;;;;10428284;28;20422;-80
2023/02/16 18:44:50;;;;;;;;;;;;;;;;;;10429127;28;19905;-80
2023/02/16 18:49:51;;;;;;;;;;;;;;;;;;10430192;28;19905;-80
2023/02/16 18:54:55;;;;;;;;;;;;;;;;;;10432077;28;19905;-81
2023/02/16 18:59:58;;;;;;;;;;;;;;;;;;10439410;28;19912;-80
2023/02/16 19:04:59;;;;;;;;;;;;;;;;;;10426065;28;19906;-81
2023/02/16 19:10:00;;;;;;;;;;;;;;;;;;10429023;28;20286;-81
2023/02/16 19:15:04;;;;;;;;;;;;;;;;;;10429925;28;20330;-82
2023/02/16 19:20:10;;;;;;;;;;;;;;;;;;10426227;28;19931;-82
2023/02/16 19:25:14;;;;;;;;;;;;;;;;;;10429143;28;20343;-82
2023/02/16 19:30:16;;;;;;;;;;;;;;;;;;10428821;28;19959;-82
2023/02/16 19:35:19;;;;;;;;;;;;;;;;;;10431928;28;19913;-82
2023/02/16 19:40:20;;;;;;;;;;;;;;;;;;10432941;28;19901;-81
2023/02/16 19:45:21;;;;;;;;;;;;;;;;;;10434528;28;20007;-81
2023/02/16 19:50:22;;;;;;;;;;;;;;;;;;10435249;28;19913;-81
2023/02/16 19:55:23;;;;;;;;;;;;;;;;;;10432727;28;19972;-81
2023/02/16 20:00:24;;;;;;;;;;;;;;;;;;10440628;28;19905;-82
2023/02/16 20:05:25;;;;;;;;;;;;;;;;;;10455040;28;19967;-81
2023/02/16 20:10:27;;;;;;;;;;;;;;;;;;10454068;28;19920;-81
2023/02/16 20:15:28;;;;;;;;;;;;;;;;;;10458390;28;19928;-81
